Date,TemperatureHighF,TemperatureAvgF,TemperatureLowF,DewpointHighF,DewpointAvgF,DewpointLowF,HumidityHigh,HumidityAvg,HumidityLow,PressureMaxIn,PressureMinIn,WindSpeedMaxMPH,WindSpeedAvgMPH,GustSpeedMaxMPH,PrecipitationSumIn
2013-3-1,64,47,37,21,15,3,51,30,11,30.18,29.94,6,1,7,0.00
2013-3-2,38,29,0,21,16,0,51,39,50,30.03,29.94,6,1,6,0.00
2013-3-3,56,12,0,5,0,0,18,4,12,30.09,30.00,8,1,8,0.00
2013-3-4,68,52,0,17,9,0,40,20,10,30.27,30.15,6,1,19,0.00
2013-3-5,76,56,39,44,22,8,65,31,8,30.24,29.80,8,2,10,0.00
2013-3-6,64,50,35,44,10,0,65,22,11,30.21,29.79,10,2,10,0.00
2013-3-7,72,47,29,25,13,2,58,31,9,30.33,30.18,8,1,8,0.00
2013-3-8,72,48,31,22,12,-1,54,28,9,30.39,30.24,10,1,10,0.00
2013-3-9,76,49,29,30,15,4,63,32,8,30.42,30.30,9,1,9,0.00
2013-3-10,82,54,33,46,18,8,75,33,7,30.39,30.27,8,1,8,0.00
2013-3-11,78,61,41,46,34,19,74,41,15,30.30,29.97,11,2,11,0.00
2013-3-12,82,64,47,62,46,18,96,59,13,30.06,29.88,8,1,9,0.17
2013-3-13,77,56,38,45,17,-1,81,32,8,30.24,30.06,10,1,10,0.00
2013-3-14,68,47,30,18,8,-4,56,25,10,30.39,30.21,8,1,8,0.00
2013-3-15,80,66,30,32,13,7,64,17,7,30.33,30.12,8,2,8,0.00
2013-3-16,92,67,50,30,18,6,42,20,4,30.15,29.94,10,2,11,0.00
2013-3-17,91,68,54,39,25,11,47,22,7,30.15,30.03,8,1,8,0.00
2013-3-18,80,63,54,55,42,31,78,49,21,30.18,29.94,10,1,10,0.37
2013-3-19,86,62,48,58,35,7,94,51,6,30.21,29.91,6,1,10,0.13
2013-3-20,69,53,38,26,15,4,52,27,10,30.24,29.94,11,1,11,0.00
2013-3-21,71,48,33,24,11,-5,55,28,9,30.03,29.88,6,1,8,0.00
2013-3-22,64,46,31,22,7,-2,41,22,11,30.21,30.03,6,1,6,0.00
2013-3-23,56,47,38,42,30,19,68,53,31,30.18,29.97,9,1,9,0.16
2013-3-24,60,52,47,60,49,39,98,90,67,29.97,29.59,7,2,8,2.78
2013-3-25,66,51,41,47,18,-2,97,38,10,30.06,29.68,10,2,11,0.00
2013-3-26,63,48,35,16,6,-2,42,20,11,30.27,30.06,8,2,8,0.00
2013-3-27,71,48,29,26,12,0,58,30,9,30.36,30.24,8,1,8,0.00
2013-3-28,72,49,30,26,12,0,58,30,9,30.39,30.24,8,1,9,0.00
2013-3-29,79,53,30,31,13,2,58,28,7,30.42,30.30,6,1,6,0.00
2013-3-30,85,62,46,37,21,7,54,27,6,30.36,30.15,8,1,8,0.00
2013-3-31,86,65,57,50,38,28,72,39,14,30.18,29.97,9,2,12,3.82